sensor_id;sensor_type;location;lat;lon;timestamp;P1;durP1;ratioP1;P2;durP2;ratioP2
31537;SDS011;18147;51.952;6.146;2022-09-09T00:01:14;6.93;;;3.85;;
31537;SDS011;18147;51.952;6.146;2022-09-09T00:06:43;6.97;;;3.47;;
31537;SDS011;18147;51.952;6.146;2022-09-09T00:11:46;5.55;;;3.92;;
31537;SDS011;18147;51.952;6.146;2022-09-09T00:14:34;8.38;;;3.90;;
31537;SDS011;18147;51.952;6.146;2022-09-09T00:17:21;4.97;;;3.10;;
31537;SDS011;18147;51.952;6.146;2022-09-09T00:23:28;5.97;;;3.40;;
31537;SDS011;18147;51.952;6.146;2022-09-09T00:26:08;5.45;;;3.50;;
31537;SDS011;18147;51.952;6.146;2022-09-09T00:28:46;5.97;;;3.40;;
31537;SDS011;18147;51.952;6.146;2022-09-09T00:31:20;5.15;;;3.13;;
31537;SDS011;18147;51.952;6.146;2022-09-09T00:33:50;5.22;;;3.03;;
31537;SDS011;18147;51.952;6.146;2022-09-09T00:36:18;7.47;;;3.08;;
31537;SDS011;18147;51.952;6.146;2022-09-09T00:38:55;3.45;;;2.90;;
31537;SDS011;18147;51.952;6.146;2022-09-09T00:41:28;5.70;;;2.63;;
31537;SDS011;18147;51.952;6.146;2022-09-09T00:44:00;5.70;;;2.60;;
31537;SDS011;18147;51.952;6.146;2022-09-09T00:52:23;5.03;;;2.75;;
31537;SDS011;18147;51.952;6.146;2022-09-09T00:55:11;3.28;;;2.25;;
31537;SDS011;18147;51.952;6.146;2022-09-09T00:57:45;3.88;;;2.47;;
31537;SDS011;18147;51.952;6.146;2022-09-09T01:00:16;3.67;;;2.30;;
31537;SDS011;18147;51.952;6.146;2022-09-09T01:05:39;5.25;;;2.70;;
31537;SDS011;18147;51.952;6.146;2022-09-09T01:10:48;5.85;;;2.38;;
31537;SDS011;18147;51.952;6.146;2022-09-09T01:13:31;5.70;;;2.28;;
31537;SDS011;18147;51.952;6.146;2022-09-09T01:16:03;3.20;;;1.92;;
31537;SDS011;18147;51.952;6.146;2022-09-09T01:18:35;3.63;;;2.22;;
31537;SDS011;18147;51.952;6.146;2022-09-09T01:26:15;6.10;;;2.50;;
31537;SDS011;18147;51.952;6.146;2022-09-09T01:28:53;2.70;;;1.90;;
31537;SDS011;18147;51.952;6.146;2022-09-09T01:31:26;4.25;;;1.60;;
31537;SDS011;18147;51.952;6.146;2022-09-09T01:33:58;3.88;;;1.90;;
31537;SDS011;18147;51.952;6.146;2022-09-09T01:36:26;4.60;;;1.95;;
31537;SDS011;18147;51.952;6.146;2022-09-09T01:39:00;2.47;;;2.13;;
31537;SDS011;18147;51.952;6.146;2022-09-09T01:41:26;6.35;;;1.95;;
31537;SDS011;18147;51.952;6.146;2022-09-09T01:44:18;3.30;;;1.95;;
31537;SDS011;18147;51.952;6.146;2022-09-09T01:46:44;5.43;;;2.10;;
31537;SDS011;18147;51.952;6.146;2022-09-09T01:49:15;4.47;;;2.10;;
31537;SDS011;18147;51.952;6.146;2022-09-09T01:51:41;3.08;;;2.28;;
31537;SDS011;18147;51.952;6.146;2022-09-09T01:54:11;6.28;;;2.40;;
31537;SDS011;18147;51.952;6.146;2022-09-09T02:01:57;2.83;;;2.45;;
31537;SDS011;18147;51.952;6.146;2022-09-09T02:04:45;6.70;;;2.47;;
31537;SDS011;18147;51.952;6.146;2022-09-09T02:07:26;5.15;;;2.95;;
31537;SDS011;18147;51.952;6.146;2022-09-09T02:10:22;5.05;;;3.63;;
31537;SDS011;18147;51.952;6.146;2022-09-09T02:13:12;6.60;;;3.17;;
31537;SDS011;18147;51.952;6.146;2022-09-09T02:15:44;3.20;;;2.63;;
31537;SDS011;18147;51.952;6.146;2022-09-09T02:18:27;5.45;;;3.25;;
31537;SDS011;18147;51.952;6.146;2022-09-09T02:20:59;4.57;;;2.78;;
31537;SDS011;18147;51.952;6.146;2022-09-09T02:23:25;5.47;;;3.05;;
31537;SDS011;18147;51.952;6.146;2022-09-09T02:25:53;9.13;;;3.30;;
31537;SDS011;18147;51.952;6.146;2022-09-09T02:28:24;7.43;;;3.47;;
31537;SDS011;18147;51.952;6.146;2022-09-09T02:30:53;2.83;;;2.42;;
31537;SDS011;18147;51.952;6.146;2022-09-09T02:33:24;7.72;;;2.70;;
31537;SDS011;18147;51.952;6.146;2022-09-09T02:35:52;4.13;;;2.40;;
31537;SDS011;18147;51.952;6.146;2022-09-09T02:38:23;4.22;;;2.67;;
31537;SDS011;18147;51.952;6.146;2022-09-09T02:40:59;6.72;;;3.35;;
31537;SDS011;18147;51.952;6.146;2022-09-09T02:43:24;10.73;;;3.00;;
31537;SDS011;18147;51.952;6.146;2022-09-09T02:51:15;6.45;;;3.17;;
31537;SDS011;18147;51.952;6.146;2022-09-09T02:54:04;7.33;;;3.30;;
31537;SDS011;18147;51.952;6.146;2022-09-09T02:56:46;15.82;;;4.60;;
31537;SDS011;18147;51.952;6.146;2022-09-09T02:59:17;9.70;;;3.85;;
31537;SDS011;18147;51.952;6.146;2022-09-09T03:01:43;6.10;;;2.90;;
31537;SDS011;18147;51.952;6.146;2022-09-09T03:04:09;4.75;;;3.65;;
31537;SDS011;18147;51.952;6.146;2022-09-09T03:06:35;9.38;;;3.72;;
31537;SDS011;18147;51.952;6.146;2022-09-09T03:09:11;5.35;;;3.55;;
31537;SDS011;18147;51.952;6.146;2022-09-09T03:11:37;6.60;;;4.18;;
31537;SDS011;18147;51.952;6.146;2022-09-09T03:14:04;6.63;;;4.47;;
31537;SDS011;18147;51.952;6.146;2022-09-09T03:16:31;7.07;;;3.97;;
31537;SDS011;18147;51.952;6.146;2022-09-09T03:18:58;11.57;;;4.15;;
31537;SDS011;18147;51.952;6.146;2022-09-09T03:21:23;7.97;;;4.25;;
31537;SDS011;18147;51.952;6.146;2022-09-09T03:23:50;11.63;;;4.95;;
31537;SDS011;18147;51.952;6.146;2022-09-09T03:26:15;6.78;;;4.68;;
31537;SDS011;18147;51.952;6.146;2022-09-09T03:28:44;14.48;;;5.43;;
31537;SDS011;18147;51.952;6.146;2022-09-09T03:31:10;10.00;;;4.90;;
31537;SDS011;18147;51.952;6.146;2022-09-09T03:33:39;20.45;;;5.85;;
31537;SDS011;18147;51.952;6.146;2022-09-09T03:36:06;13.35;;;5.95;;
31537;SDS011;18147;51.952;6.146;2022-09-09T03:38:33;14.13;;;5.38;;
31537;SDS011;18147;51.952;6.146;2022-09-09T03:41:00;9.98;;;5.45;;
31537;SDS011;18147;51.952;6.146;2022-09-09T03:43:26;10.95;;;5.40;;
31537;SDS011;18147;51.952;6.146;2022-09-09T03:45:53;9.00;;;5.40;;
31537;SDS011;18147;51.952;6.146;2022-09-09T03:48:22;10.95;;;6.22;;
31537;SDS011;18147;51.952;6.146;2022-09-09T03:50:51;8.55;;;5.35;;
31537;SDS011;18147;51.952;6.146;2022-09-09T03:53:20;11.52;;;5.70;;
31537;SDS011;18147;51.952;6.146;2022-09-09T03:55:48;19.08;;;6.80;;
31537;SDS011;18147;51.952;6.146;2022-09-09T03:58:16;10.25;;;5.93;;
31537;SDS011;18147;51.952;6.146;2022-09-09T04:03:44;13.65;;;6.57;;
31537;SDS011;18147;51.952;6.146;2022-09-09T04:06:13;12.63;;;6.68;;
31537;SDS011;18147;51.952;6.146;2022-09-09T04:08:42;12.02;;;6.82;;
31537;SDS011;18147;51.952;6.146;2022-09-09T04:11:08;14.25;;;6.50;;
31537;SDS011;18147;51.952;6.146;2022-09-09T04:13:35;17.73;;;7.28;;
31537;SDS011;18147;51.952;6.146;2022-09-09T04:16:03;19.42;;;7.13;;
31537;SDS011;18147;51.952;6.146;2022-09-09T04:18:30;17.85;;;6.32;;
31537;SDS011;18147;51.952;6.146;2022-09-09T04:20:56;11.23;;;6.10;;
31537;SDS011;18147;51.952;6.146;2022-09-09T04:23:25;13.02;;;6.18;;
31537;SDS011;18147;51.952;6.146;2022-09-09T04:25:54;15.65;;;6.82;;
31537;SDS011;18147;51.952;6.146;2022-09-09T04:28:22;12.90;;;6.35;;
31537;SDS011;18147;51.952;6.146;2022-09-09T04:30:49;11.43;;;6.65;;
31537;SDS011;18147;51.952;6.146;2022-09-09T04:33:15;13.88;;;6.65;;
31537;SDS011;18147;51.952;6.146;2022-09-09T04:35:46;13.10;;;6.75;;
31537;SDS011;18147;51.952;6.146;2022-09-09T04:38:14;15.77;;;6.63;;
31537;SDS011;18147;51.952;6.146;2022-09-09T04:40:44;14.45;;;6.90;;
31537;SDS011;18147;51.952;6.146;2022-09-09T04:43:11;20.30;;;6.93;;
31537;SDS011;18147;51.952;6.146;2022-09-09T04:45:39;16.65;;;7.53;;
31537;SDS011;18147;51.952;6.146;2022-09-09T04:48:06;13.43;;;6.05;;
31537;SDS011;18147;51.952;6.146;2022-09-09T04:50:33;16.98;;;6.40;;
31537;SDS011;18147;51.952;6.146;2022-09-09T04:53:02;18.00;;;6.78;;
31537;SDS011;18147;51.952;6.146;2022-09-09T04:55:30;16.65;;;6.90;;
31537;SDS011;18147;51.952;6.146;2022-09-09T04:57:56;14.82;;;6.00;;
31537;SDS011;18147;51.952;6.146;2022-09-09T05:00:23;13.35;;;7.70;;
31537;SDS011;18147;51.952;6.146;2022-09-09T05:02:50;14.77;;;6.13;;
31537;SDS011;18147;51.952;6.146;2022-09-09T05:05:16;15.93;;;6.68;;
31537;SDS011;18147;51.952;6.146;2022-09-09T05:07:45;14.15;;;6.18;;
31537;SDS011;18147;51.952;6.146;2022-09-09T05:10:12;11.57;;;5.80;;
31537;SDS011;18147;51.952;6.146;2022-09-09T05:12:39;12.98;;;5.70;;
31537;SDS011;18147;51.952;6.146;2022-09-09T05:15:05;13.10;;;5.75;;
31537;SDS011;18147;51.952;6.146;2022-09-09T05:17:30;11.15;;;5.60;;
31537;SDS011;18147;51.952;6.146;2022-09-09T05:19:56;15.43;;;6.03;;
31537;SDS011;18147;51.952;6.146;2022-09-09T05:22:22;13.07;;;5.32;;
31537;SDS011;18147;51.952;6.146;2022-09-09T05:24:49;12.13;;;5.53;;
31537;SDS011;18147;51.952;6.146;2022-09-09T05:27:18;14.65;;;5.60;;
31537;SDS011;18147;51.952;6.146;2022-09-09T05:29:46;11.60;;;4.88;;
31537;SDS011;18147;51.952;6.146;2022-09-09T05:32:12;11.07;;;4.70;;
31537;SDS011;18147;51.952;6.146;2022-09-09T05:34:40;13.55;;;4.47;;
31537;SDS011;18147;51.952;6.146;2022-09-09T05:37:05;7.68;;;3.83;;
31537;SDS011;18147;51.952;6.146;2022-09-09T05:39:33;11.90;;;5.20;;
31537;SDS011;18147;51.952;6.146;2022-09-09T05:41:59;10.70;;;4.93;;
31537;SDS011;18147;51.952;6.146;2022-09-09T05:44:24;12.45;;;4.00;;
31537;SDS011;18147;51.952;6.146;2022-09-09T05:46:53;18.60;;;4.60;;
31537;SDS011;18147;51.952;6.146;2022-09-09T05:49:20;10.35;;;4.32;;
31537;SDS011;18147;51.952;6.146;2022-09-09T05:51:47;14.70;;;4.80;;
31537;SDS011;18147;51.952;6.146;2022-09-09T05:54:14;17.45;;;4.05;;
31537;SDS011;18147;51.952;6.146;2022-09-09T05:56:43;11.80;;;4.38;;
31537;SDS011;18147;51.952;6.146;2022-09-09T05:59:09;12.38;;;4.10;;
31537;SDS011;18147;51.952;6.146;2022-09-09T06:01:37;11.27;;;4.43;;
31537;SDS011;18147;51.952;6.146;2022-09-09T06:04:08;17.27;;;4.30;;
31537;SDS011;18147;51.952;6.146;2022-09-09T06:06:35;7.97;;;3.97;;
31537;SDS011;18147;51.952;6.146;2022-09-09T06:09:09;12.10;;;4.05;;
31537;SDS011;18147;51.952;6.146;2022-09-09T06:11:37;9.45;;;3.88;;
31537;SDS011;18147;51.952;6.146;2022-09-09T06:14:04;20.10;;;4.82;;
31537;SDS011;18147;51.952;6.146;2022-09-09T06:16:30;12.40;;;3.88;;
31537;SDS011;18147;51.952;6.146;2022-09-09T06:19:00;9.40;;;3.85;;
31537;SDS011;18147;51.952;6.146;2022-09-09T06:21:30;8.32;;;4.05;;
31537;SDS011;18147;51.952;6.146;2022-09-09T06:23:59;11.43;;;4.50;;
31537;SDS011;18147;51.952;6.146;2022-09-09T06:26:35;9.25;;;3.22;;
31537;SDS011;18147;51.952;6.146;2022-09-09T06:29:03;11.55;;;3.75;;
31537;SDS011;18147;51.952;6.146;2022-09-09T06:31:31;11.30;;;3.38;;
31537;SDS011;18147;51.952;6.146;2022-09-09T06:34:06;7.13;;;3.30;;
31537;SDS011;18147;51.952;6.146;2022-09-09T06:36:34;8.73;;;3.13;;
31537;SDS011;18147;51.952;6.146;2022-09-09T06:39:02;9.75;;;4.07;;
31537;SDS011;18147;51.952;6.146;2022-09-09T06:41:31;12.82;;;3.33;;
31537;SDS011;18147;51.952;6.146;2022-09-09T06:43:58;9.90;;;3.25;;
31537;SDS011;18147;51.952;6.146;2022-09-09T06:46:32;4.82;;;2.83;;
31537;SDS011;18147;51.952;6.146;2022-09-09T06:48:59;9.82;;;3.30;;
31537;SDS011;18147;51.952;6.146;2022-09-09T06:51:31;9.30;;;2.40;;
31537;SDS011;18147;51.952;6.146;2022-09-09T06:54:01;10.45;;;2.95;;
31537;SDS011;18147;51.952;6.146;2022-09-09T06:56:29;8.40;;;2.80;;
31537;SDS011;18147;51.952;6.146;2022-09-09T06:58:58;16.65;;;3.97;;
31537;SDS011;18147;51.952;6.146;2022-09-09T07:01:29;8.88;;;2.70;;
31537;SDS011;18147;51.952;6.146;2022-09-09T07:03:59;13.73;;;3.08;;
31537;SDS011;18147;51.952;6.146;2022-09-09T07:06:27;13.73;;;3.40;;
31537;SDS011;18147;51.952;6.146;2022-09-09T07:08:56;11.38;;;3.03;;
31537;SDS011;18147;51.952;6.146;2022-09-09T07:11:27;11.50;;;2.97;;
31537;SDS011;18147;51.952;6.146;2022-09-09T07:13:54;9.68;;;2.90;;
31537;SDS011;18147;51.952;6.146;2022-09-09T07:16:22;11.82;;;3.15;;
31537;SDS011;18147;51.952;6.146;2022-09-09T07:18:52;10.27;;;3.15;;
31537;SDS011;18147;51.952;6.146;2022-09-09T07:21:23;17.80;;;4.57;;
31537;SDS011;18147;51.952;6.146;2022-09-09T07:23:50;10.50;;;3.20;;
31537;SDS011;18147;51.952;6.146;2022-09-09T07:26:17;13.48;;;3.45;;
31537;SDS011;18147;51.952;6.146;2022-09-09T07:28:45;5.72;;;3.05;;
31537;SDS011;18147;51.952;6.146;2022-09-09T07:31:18;14.50;;;3.25;;
31537;SDS011;18147;51.952;6.146;2022-09-09T07:33:45;10.00;;;2.58;;
31537;SDS011;18147;51.952;6.146;2022-09-09T07:36:25;11.77;;;3.03;;
31537;SDS011;18147;51.952;6.146;2022-09-09T07:38:54;13.82;;;3.22;;
31537;SDS011;18147;51.952;6.146;2022-09-09T07:43:52;11.32;;;3.58;;
31537;SDS011;18147;51.952;6.146;2022-09-09T07:46:23;10.10;;;3.78;;
31537;SDS011;18147;51.952;6.146;2022-09-09T07:48:51;12.65;;;3.00;;
31537;SDS011;18147;51.952;6.146;2022-09-09T07:51:34;7.10;;;2.80;;
31537;SDS011;18147;51.952;6.146;2022-09-09T07:54:05;11.82;;;4.47;;
31537;SDS011;18147;51.952;6.146;2022-09-09T07:56:35;14.70;;;3.13;;
31537;SDS011;18147;51.952;6.146;2022-09-09T07:59:02;6.78;;;2.35;;
31537;SDS011;18147;51.952;6.146;2022-09-09T08:01:39;15.63;;;3.38;;
31537;SDS011;18147;51.952;6.146;2022-09-09T08:04:09;7.90;;;2.60;;
31537;SDS011;18147;51.952;6.146;2022-09-09T08:06:40;7.85;;;2.70;;
31537;SDS011;18147;51.952;6.146;2022-09-09T08:09:08;8.32;;;3.00;;
31537;SDS011;18147;51.952;6.146;2022-09-09T08:11:35;5.93;;;2.45;;
31537;SDS011;18147;51.952;6.146;2022-09-09T08:14:02;9.52;;;3.33;;
31537;SDS011;18147;51.952;6.146;2022-09-09T08:16:30;9.52;;;2.80;;
31537;SDS011;18147;51.952;6.146;2022-09-09T08:18:58;7.50;;;2.03;;
31537;SDS011;18147;51.952;6.146;2022-09-09T08:21:28;11.85;;;2.50;;
31537;SDS011;18147;51.952;6.146;2022-09-09T08:23:57;13.13;;;3.22;;
31537;SDS011;18147;51.952;6.146;2022-09-09T08:26:25;13.73;;;2.50;;
31537;SDS011;18147;51.952;6.146;2022-09-09T08:28:54;17.02;;;3.20;;
31537;SDS011;18147;51.952;6.146;2022-09-09T08:31:23;10.50;;;2.92;;
31537;SDS011;18147;51.952;6.146;2022-09-09T08:33:57;13.30;;;2.90;;
31537;SDS011;18147;51.952;6.146;2022-09-09T08:36:25;7.30;;;2.33;;
31537;SDS011;18147;51.952;6.146;2022-09-09T08:38:53;9.00;;;2.00;;
31537;SDS011;18147;51.952;6.146;2022-09-09T08:41:32;9.10;;;2.10;;
31537;SDS011;18147;51.952;6.146;2022-09-09T08:44:02;9.75;;;2.78;;
31537;SDS011;18147;51.952;6.146;2022-09-09T08:52:01;10.32;;;2.80;;
31537;SDS011;18147;51.952;6.146;2022-09-09T08:54:30;10.73;;;2.35;;
31537;SDS011;18147;51.952;6.146;2022-09-09T08:57:00;9.20;;;2.50;;
31537;SDS011;18147;51.952;6.146;2022-09-09T08:59:25;10.50;;;2.20;;
31537;SDS011;18147;51.952;6.146;2022-09-09T09:02:03;8.25;;;2.10;;
31537;SDS011;18147;51.952;6.146;2022-09-09T09:07:55;6.53;;;2.33;;
31537;SDS011;18147;51.952;6.146;2022-09-09T09:10:47;7.60;;;3.03;;
31537;SDS011;18147;51.952;6.146;2022-09-09T09:13:20;7.72;;;2.08;;
31537;SDS011;18147;51.952;6.146;2022-09-09T09:15:55;9.52;;;2.22;;
31537;SDS011;18147;51.952;6.146;2022-09-09T09:18:28;10.98;;;2.83;;
31537;SDS011;18147;51.952;6.146;2022-09-09T09:20:56;4.00;;;1.88;;
31537;SDS011;18147;51.952;6.146;2022-09-09T09:23:34;10.43;;;2.70;;
31537;SDS011;18147;51.952;6.146;2022-09-09T09:26:09;8.95;;;2.40;;
31537;SDS011;18147;51.952;6.146;2022-09-09T09:28:39;7.72;;;2.40;;
31537;SDS011;18147;51.952;6.146;2022-09-09T09:31:11;9.75;;;2.38;;
31537;SDS011;18147;51.952;6.146;2022-09-09T09:36:20;5.43;;;1.63;;
31537;SDS011;18147;51.952;6.146;2022-09-09T09:38:59;10.63;;;2.75;;
31537;SDS011;18147;51.952;6.146;2022-09-09T09:41:30;5.57;;;1.65;;
31537;SDS011;18147;51.952;6.146;2022-09-09T09:43:58;4.97;;;1.60;;
31537;SDS011;18147;51.952;6.146;2022-09-09T09:46:27;8.55;;;2.67;;
31537;SDS011;18147;51.952;6.146;2022-09-09T09:49:02;4.28;;;1.27;;
31537;SDS011;18147;51.952;6.146;2022-09-09T09:51:33;6.78;;;1.98;;
31537;SDS011;18147;51.952;6.146;2022-09-09T09:56:38;6.00;;;1.75;;
31537;SDS011;18147;51.952;6.146;2022-09-09T09:59:19;5.25;;;1.27;;
31537;SDS011;18147;51.952;6.146;2022-09-09T10:02:06;4.15;;;1.92;;
31537;SDS011;18147;51.952;6.146;2022-09-09T10:04:37;6.60;;;2.08;;
31537;SDS011;18147;51.952;6.146;2022-09-09T10:07:16;7.47;;;1.90;;
31537;SDS011;18147;51.952;6.146;2022-09-09T10:09:43;6.32;;;2.08;;
31537;SDS011;18147;51.952;6.146;2022-09-09T10:12:19;9.57;;;2.88;;
31537;SDS011;18147;51.952;6.146;2022-09-09T10:31:51;6.72;;;1.45;;
31537;SDS011;18147;51.952;6.146;2022-09-09T10:39:58;5.00;;;1.58;;
31537;SDS011;18147;51.952;6.146;2022-09-09T10:42:50;3.38;;;1.63;;
31537;SDS011;18147;51.952;6.146;2022-09-09T10:45:21;6.90;;;1.90;;
31537;SDS011;18147;51.952;6.146;2022-09-09T10:48:11;7.03;;;1.75;;
31537;SDS011;18147;51.952;6.146;2022-09-09T10:53:45;6.13;;;1.33;;
31537;SDS011;18147;51.952;6.146;2022-09-09T10:56:22;7.75;;;1.60;;
31537;SDS011;18147;51.952;6.146;2022-09-09T10:58:53;7.20;;;2.17;;
31537;SDS011;18147;51.952;6.146;2022-09-09T11:01:31;5.85;;;1.30;;
31537;SDS011;18147;51.952;6.146;2022-09-09T11:04:10;5.53;;;2.00;;
31537;SDS011;18147;51.952;6.146;2022-09-09T11:07:00;5.03;;;1.42;;
31537;SDS011;18147;51.952;6.146;2022-09-09T11:09:32;10.38;;;1.83;;
31537;SDS011;18147;51.952;6.146;2022-09-09T11:12:02;10.60;;;2.25;;
31537;SDS011;18147;51.952;6.146;2022-09-09T11:14:29;3.95;;;1.65;;
31537;SDS011;18147;51.952;6.146;2022-09-09T11:17:02;6.82;;;1.98;;
31537;SDS011;18147;51.952;6.146;2022-09-09T11:22:04;9.98;;;1.85;;
31537;SDS011;18147;51.952;6.146;2022-09-09T11:24:40;5.00;;;1.55;;
31537;SDS011;18147;51.952;6.146;2022-09-09T11:27:14;8.52;;;1.88;;
31537;SDS011;18147;51.952;6.146;2022-09-09T11:30:01;5.78;;;1.60;;
31537;SDS011;18147;51.952;6.146;2022-09-09T11:41:16;15.23;;;2.60;;
31537;SDS011;18147;51.952;6.146;2022-09-09T11:43:46;5.85;;;1.90;;
31537;SDS011;18147;51.952;6.146;2022-09-09T11:46:16;11.82;;;2.28;;
31537;SDS011;18147;51.952;6.146;2022-09-09T11:48:45;6.22;;;1.30;;
31537;SDS011;18147;51.952;6.146;2022-09-09T11:53:54;3.30;;;1.83;;
31537;SDS011;18147;51.952;6.146;2022-09-09T11:56:33;5.22;;;1.70;;
31537;SDS011;18147;51.952;6.146;2022-09-09T12:05:05;6.68;;;1.95;;
31537;SDS011;18147;51.952;6.146;2022-09-09T12:07:41;5.20;;;1.60;;
31537;SDS011;18147;51.952;6.146;2022-09-09T12:10:31;9.68;;;1.98;;
31537;SDS011;18147;51.952;6.146;2022-09-09T12:13:15;5.30;;;1.70;;
31537;SDS011;18147;51.952;6.146;2022-09-09T12:15:49;5.60;;;1.90;;
31537;SDS011;18147;51.952;6.146;2022-09-09T12:18:52;5.55;;;1.95;;
31537;SDS011;18147;51.952;6.146;2022-09-09T12:24:08;8.30;;;2.10;;
31537;SDS011;18147;51.952;6.146;2022-09-09T12:29:15;4.68;;;1.67;;
31537;SDS011;18147;51.952;6.146;2022-09-09T12:31:55;7.95;;;1.95;;
31537;SDS011;18147;51.952;6.146;2022-09-09T12:34:52;5.22;;;1.58;;
31537;SDS011;18147;51.952;6.146;2022-09-09T12:40:24;6.53;;;1.58;;
31537;SDS011;18147;51.952;6.146;2022-09-09T12:42:52;4.47;;;1.58;;
31537;SDS011;18147;51.952;6.146;2022-09-09T12:45:21;8.05;;;1.50;;
31537;SDS011;18147;51.952;6.146;2022-09-09T12:50:33;8.65;;;1.77;;
31537;SDS011;18147;51.952;6.146;2022-09-09T12:53:03;4.32;;;2.08;;
31537;SDS011;18147;51.952;6.146;2022-09-09T12:55:35;6.00;;;2.15;;
31537;SDS011;18147;51.952;6.146;2022-09-09T12:58:03;3.88;;;1.63;;
31537;SDS011;18147;51.952;6.146;2022-09-09T13:00:31;5.68;;;1.38;;
31537;SDS011;18147;51.952;6.146;2022-09-09T13:03:02;10.23;;;2.10;;
31537;SDS011;18147;51.952;6.146;2022-09-09T13:05:41;5.38;;;2.17;;
31537;SDS011;18147;51.952;6.146;2022-09-09T13:08:10;4.03;;;1.85;;
31537;SDS011;18147;51.952;6.146;2022-09-09T13:10:38;3.72;;;1.70;;
31537;SDS011;18147;51.952;6.146;2022-09-09T13:13:12;2.40;;;1.80;;
31537;SDS011;18147;51.952;6.146;2022-09-09T13:15:47;4.90;;;2.20;;
31537;SDS011;18147;51.952;6.146;2022-09-09T13:18:14;5.00;;;2.05;;
31537;SDS011;18147;51.952;6.146;2022-09-09T13:20:46;5.18;;;2.00;;
31537;SDS011;18147;51.952;6.146;2022-09-09T13:23:13;3.05;;;1.85;;
31537;SDS011;18147;51.952;6.146;2022-09-09T13:25:40;6.75;;;2.40;;
31537;SDS011;18147;51.952;6.146;2022-09-09T13:28:18;6.20;;;2.05;;
31537;SDS011;18147;51.952;6.146;2022-09-09T13:30:55;6.25;;;1.90;;
31537;SDS011;18147;51.952;6.146;2022-09-09T13:33:29;9.05;;;2.60;;
31537;SDS011;18147;51.952;6.146;2022-09-09T13:36:08;7.47;;;2.33;;
31537;SDS011;18147;51.952;6.146;2022-09-09T13:38:36;6.35;;;2.60;;
31537;SDS011;18147;51.952;6.146;2022-09-09T13:41:20;6.50;;;2.50;;
31537;SDS011;18147;51.952;6.146;2022-09-09T13:43:48;7.38;;;2.47;;
31537;SDS011;18147;51.952;6.146;2022-09-09T13:52:02;5.47;;;1.90;;
31537;SDS011;18147;51.952;6.146;2022-09-09T13:54:31;10.23;;;2.65;;
31537;SDS011;18147;51.952;6.146;2022-09-09T13:56:56;8.27;;;2.58;;
31537;SDS011;18147;51.952;6.146;2022-09-09T13:59:21;6.03;;;2.35;;
31537;SDS011;18147;51.952;6.146;2022-09-09T14:01:49;3.47;;;2.33;;
31537;SDS011;18147;51.952;6.146;2022-09-09T14:04:17;5.78;;;2.03;;
31537;SDS011;18147;51.952;6.146;2022-09-09T14:06:46;3.83;;;1.85;;
31537;SDS011;18147;51.952;6.146;2022-09-09T14:09:13;7.25;;;2.47;;
31537;SDS011;18147;51.952;6.146;2022-09-09T14:11:41;9.90;;;2.88;;
31537;SDS011;18147;51.952;6.146;2022-09-09T14:14:06;5.35;;;2.85;;
31537;SDS011;18147;51.952;6.146;2022-09-09T14:16:32;9.23;;;3.72;;
31537;SDS011;18147;51.952;6.146;2022-09-09T14:18:58;6.45;;;3.20;;
31537;SDS011;18147;51.952;6.146;2022-09-09T14:21:24;9.88;;;4.03;;
31537;SDS011;18147;51.952;6.146;2022-09-09T14:23:51;10.13;;;3.90;;
31537;SDS011;18147;51.952;6.146;2022-09-09T14:26:18;7.65;;;3.25;;
31537;SDS011;18147;51.952;6.146;2022-09-09T14:28:46;7.05;;;3.55;;
31537;SDS011;18147;51.952;6.146;2022-09-09T14:31:12;11.05;;;3.83;;
31537;SDS011;18147;51.952;6.146;2022-09-09T14:33:38;12.38;;;4.90;;
31537;SDS011;18147;51.952;6.146;2022-09-09T14:36:04;13.18;;;3.88;;
31537;SDS011;18147;51.952;6.146;2022-09-09T14:38:30;10.98;;;3.67;;
31537;SDS011;18147;51.952;6.146;2022-09-09T14:40:58;8.48;;;3.42;;
31537;SDS011;18147;51.952;6.146;2022-09-09T14:43:24;11.98;;;3.78;;
31537;SDS011;18147;51.952;6.146;2022-09-09T14:45:49;12.93;;;4.97;;
31537;SDS011;18147;51.952;6.146;2022-09-09T14:48:16;11.00;;;3.95;;
31537;SDS011;18147;51.952;6.146;2022-09-09T14:50:42;11.05;;;4.10;;
31537;SDS011;18147;51.952;6.146;2022-09-09T14:53:08;8.52;;;3.42;;
31537;SDS011;18147;51.952;6.146;2022-09-09T14:55:34;5.22;;;2.40;;
31537;SDS011;18147;51.952;6.146;2022-09-09T14:57:59;12.50;;;3.53;;
31537;SDS011;18147;51.952;6.146;2022-09-09T15:00:24;7.95;;;2.60;;
31537;SDS011;18147;51.952;6.146;2022-09-09T15:02:54;8.82;;;2.80;;
31537;SDS011;18147;51.952;6.146;2022-09-09T15:05:20;7.47;;;2.20;;
31537;SDS011;18147;51.952;6.146;2022-09-09T15:07:46;6.30;;;2.67;;
31537;SDS011;18147;51.952;6.146;2022-09-09T15:10:13;8.23;;;2.78;;
31537;SDS011;18147;51.952;6.146;2022-09-09T15:12:39;8.77;;;2.72;;
31537;SDS011;18147;51.952;6.146;2022-09-09T15:15:04;3.85;;;2.15;;
31537;SDS011;18147;51.952;6.146;2022-09-09T15:17:30;5.75;;;2.47;;
31537;SDS011;18147;51.952;6.146;2022-09-09T15:19:56;7.35;;;2.58;;
31537;SDS011;18147;51.952;6.146;2022-09-09T15:22:21;3.95;;;2.45;;
31537;SDS011;18147;51.952;6.146;2022-09-09T15:24:47;7.90;;;2.80;;
31537;SDS011;18147;51.952;6.146;2022-09-09T15:27:12;6.93;;;2.85;;
31537;SDS011;18147;51.952;6.146;2022-09-09T15:29:39;7.95;;;2.20;;
31537;SDS011;18147;51.952;6.146;2022-09-09T15:32:05;7.63;;;2.35;;
31537;SDS011;18147;51.952;6.146;2022-09-09T15:34:31;7.70;;;2.60;;
31537;SDS011;18147;51.952;6.146;2022-09-09T15:36:56;7.45;;;2.25;;
31537;SDS011;18147;51.952;6.146;2022-09-09T15:39:22;6.10;;;2.33;;
31537;SDS011;18147;51.952;6.146;2022-09-09T15:41:47;6.70;;;2.42;;
31537;SDS011;18147;51.952;6.146;2022-09-09T15:44:14;7.10;;;2.08;;
31537;SDS011;18147;51.952;6.146;2022-09-09T15:46:44;12.40;;;2.30;;
31537;SDS011;18147;51.952;6.146;2022-09-09T15:49:11;7.65;;;2.35;;
31537;SDS011;18147;51.952;6.146;2022-09-09T15:51:43;7.00;;;2.00;;
31537;SDS011;18147;51.952;6.146;2022-09-09T15:54:14;4.13;;;2.30;;
31537;SDS011;18147;51.952;6.146;2022-09-09T15:56:42;12.02;;;3.30;;
31537;SDS011;18147;51.952;6.146;2022-09-09T15:59:08;4.78;;;1.73;;
31537;SDS011;18147;51.952;6.146;2022-09-09T16:01:33;3.95;;;1.92;;
31537;SDS011;18147;51.952;6.146;2022-09-09T16:03:59;7.30;;;1.85;;
31537;SDS011;18147;51.952;6.146;2022-09-09T16:06:25;5.13;;;2.58;;
31537;SDS011;18147;51.952;6.146;2022-09-09T16:08:53;3.95;;;1.85;;
31537;SDS011;18147;51.952;6.146;2022-09-09T16:11:20;6.18;;;2.00;;
31537;SDS011;18147;51.952;6.146;2022-09-09T16:13:48;4.97;;;2.40;;
31537;SDS011;18147;51.952;6.146;2022-09-09T16:16:16;6.55;;;2.95;;
31537;SDS011;18147;51.952;6.146;2022-09-09T16:18:48;7.90;;;2.63;;
31537;SDS011;18147;51.952;6.146;2022-09-09T16:23:43;6.18;;;2.70;;
31537;SDS011;18147;51.952;6.146;2022-09-09T16:26:14;6.90;;;2.03;;
31537;SDS011;18147;51.952;6.146;2022-09-09T16:28:40;6.55;;;2.75;;
31537;SDS011;18147;51.952;6.146;2022-09-09T16:31:07;8.90;;;2.00;;
31537;SDS011;18147;51.952;6.146;2022-09-09T16:33:38;5.78;;;2.20;;
31537;SDS011;18147;51.952;6.146;2022-09-09T16:36:12;7.13;;;2.40;;
31537;SDS011;18147;51.952;6.146;2022-09-09T16:38:39;4.00;;;1.70;;
31537;SDS011;18147;51.952;6.146;2022-09-09T16:41:05;5.70;;;2.28;;
31537;SDS011;18147;51.952;6.146;2022-09-09T16:43:35;4.20;;;2.08;;
31537;SDS011;18147;51.952;6.146;2022-09-09T16:46:02;4.05;;;1.13;;
31537;SDS011;18147;51.952;6.146;2022-09-09T16:48:33;2.17;;;0.77;;
31537;SDS011;18147;51.952;6.146;2022-09-09T16:51:05;3.90;;;1.17;;
31537;SDS011;18147;51.952;6.146;2022-09-09T16:53:33;2.90;;;0.80;;
31537;SDS011;18147;51.952;6.146;2022-09-09T16:56:09;2.20;;;1.35;;
31537;SDS011;18147;51.952;6.146;2022-09-09T16:58:36;2.20;;;1.70;;
31537;SDS011;18147;51.952;6.146;2022-09-09T17:01:02;2.58;;;1.33;;
31537;SDS011;18147;51.952;6.146;2022-09-09T17:03:28;6.13;;;2.28;;